createdAt,value
2018-07-03T12:42:03.454Z,25.71
2018-07-03T12:43:03.430Z,29.50
2018-07-03T12:44:57.075Z,27.24
2018-07-03T12:45:57.026Z,25.89
2018-07-03T12:47:50.375Z,25.93
2018-07-03T12:48:50.325Z,24.38
2018-07-03T12:51:24.624Z,26.44
2018-07-03T12:52:24.548Z,21.56
2018-07-03T12:54:29.424Z,21.88
2018-07-03T12:55:29.427Z,24.41
2018-07-03T12:57:22.276Z,24.61
2018-07-03T12:58:22.257Z,24.91
2018-07-03T13:00:15.426Z,0.00
2018-07-03T13:01:15.406Z,0.00
2018-07-03T13:06:07.297Z,26.76
2018-07-03T13:07:07.259Z,27.04
2018-07-03T13:09:00.209Z,24.50
2018-07-03T13:10:00.072Z,29.26
2018-07-03T13:11:52.960Z,25.56
2018-07-03T13:12:52.920Z,27.59
2018-07-03T13:14:46.561Z,28.74
2018-07-03T13:15:46.527Z,25.82
2018-07-03T13:17:39.880Z,28.64
2018-07-03T13:18:39.846Z,25.82
2018-07-03T13:20:44.171Z,25.25
2018-07-03T13:21:44.147Z,25.34
2018-07-03T13:23:37.304Z,25.70
2018-07-03T13:24:37.258Z,25.90
2018-07-03T13:26:30.089Z,25.81
2018-07-03T13:27:30.064Z,25.82
2018-07-03T13:29:23.240Z,24.17
2018-07-03T13:30:23.188Z,24.95
2018-07-03T13:32:16.516Z,24.38
2018-07-03T13:33:16.492Z,24.29
2018-07-03T13:35:09.663Z,24.58
2018-07-03T13:36:09.614Z,24.68
2018-07-03T13:38:02.960Z,24.39
2018-07-03T13:39:02.920Z,24.77
2018-07-03T13:40:55.779Z,25.15
2018-07-03T13:41:55.759Z,25.07
2018-07-03T13:43:48.890Z,23.71
2018-07-03T13:44:48.847Z,23.71
2018-07-03T13:46:42.230Z,23.05
2018-07-03T13:47:42.183Z,23.44
2018-07-03T13:49:35.288Z,22.67
2018-07-03T13:50:35.268Z,22.87
2018-07-03T13:52:28.429Z,23.05
2018-07-03T13:53:28.518Z,22.96
2018-07-03T13:55:21.684Z,22.85
2018-07-03T13:56:21.617Z,23.71
2018-07-03T13:57:21.642Z,24.18
2018-07-03T13:58:24.471Z,24.48
2018-07-03T13:59:21.479Z,24.67
2018-07-03T14:00:21.481Z,25.07
2018-07-03T14:01:21.452Z,24.10
2018-07-03T14:02:21.499Z,24.78
2018-07-03T14:03:21.423Z,24.96
2018-07-03T14:04:21.407Z,24.85
2018-07-03T14:05:21.393Z,25.42
2018-07-03T14:06:21.382Z,25.73
2018-07-03T14:07:21.362Z,25.71
2018-07-03T14:08:23.318Z,26.78
2018-07-03T14:09:21.364Z,26.70
2018-07-03T14:10:22.438Z,25.82
2018-07-03T14:11:21.368Z,25.63
2018-07-03T14:12:21.390Z,25.73
2018-07-03T14:13:21.324Z,26.21
2018-07-03T14:14:21.299Z,26.31
2018-07-03T14:15:21.305Z,26.11
2018-07-03T14:16:21.331Z,25.82
2018-07-03T14:17:21.243Z,26.70
2018-07-03T14:18:21.313Z,26.79
2018-07-03T14:19:21.231Z,26.60
2018-07-03T14:20:22.869Z,27.46
2018-07-03T14:21:21.174Z,27.35
2018-07-03T14:22:21.185Z,27.46
2018-07-03T14:23:21.133Z,27.36
2018-07-03T14:24:21.161Z,27.17
2018-07-03T14:25:21.116Z,27.08
2018-07-03T14:26:21.105Z,27.47
2018-07-03T14:27:21.102Z,26.90
2018-07-03T14:28:21.114Z,26.98
2018-07-03T14:29:21.068Z,27.37
2018-07-03T14:30:21.028Z,27.68
2018-07-03T14:31:21.813Z,27.29
2018-07-03T14:32:21.047Z,26.62
2018-07-03T14:33:21.034Z,27.01
2018-07-03T14:34:23.869Z,27.00
2018-07-03T14:35:22.855Z,27.00
2018-07-03T14:36:21.039Z,27.37
2018-07-03T14:37:20.930Z,27.68
2018-07-03T14:38:20.894Z,27.58
2018-07-03T14:39:20.915Z,27.00
2018-07-03T14:40:20.917Z,27.28
2018-07-03T14:41:20.865Z,27.57
2018-07-03T14:42:20.872Z,27.75
2018-07-03T14:43:20.805Z,28.04
2018-07-03T14:44:20.813Z,28.04
2018-07-03T14:45:20.829Z,27.57
2018-07-03T14:46:20.784Z,27.18
2018-07-03T14:47:20.775Z,27.37
2018-07-03T14:48:20.757Z,27.86
2018-07-03T14:49:20.803Z,29.22
2018-07-03T14:50:20.776Z,29.90
2018-07-03T14:51:20.740Z,30.29
2018-07-03T14:52:21.340Z,29.88
2018-07-03T14:53:20.656Z,30.84
2018-07-03T14:54:20.638Z,30.85
2018-07-03T14:55:20.670Z,31.04
2018-07-03T14:56:20.621Z,30.95
2018-07-03T14:57:20.606Z,30.76
2018-07-03T14:58:20.596Z,30.27
2018-07-03T14:59:20.565Z,30.57
2018-07-03T15:00:22.388Z,31.05
2018-07-03T15:01:20.512Z,30.65
2018-07-03T15:02:20.650Z,31.13
2018-07-03T15:03:20.543Z,31.32
2018-07-03T15:04:20.516Z,31.62
2018-07-03T15:05:20.487Z,31.34
2018-07-03T15:06:20.549Z,31.15
2018-07-03T15:07:20.466Z,30.37
2018-07-03T15:08:20.489Z,29.79
2018-07-03T15:09:20.418Z,29.87
2018-07-03T15:10:20.373Z,30.18
2018-07-03T15:11:20.349Z,29.98
2018-07-03T15:12:21.346Z,29.61
2018-07-03T15:13:20.395Z,29.52
2018-07-03T15:14:20.550Z,28.75
2018-07-03T15:15:21.111Z,28.76
2018-07-03T15:16:20.398Z,28.76
2018-07-03T15:17:20.462Z,28.96
2018-07-03T15:18:20.573Z,28.85
2018-07-03T15:19:20.602Z,29.04
2018-07-03T15:20:20.539Z,28.85
2018-07-03T15:21:20.479Z,29.05
2018-07-03T15:22:20.947Z,29.25
2018-07-03T15:23:20.461Z,28.96
2018-07-03T15:24:20.322Z,28.83
2018-07-03T15:25:20.265Z,28.93
2018-07-03T15:26:20.224Z,29.32
2018-07-03T15:27:20.111Z,29.51
2018-07-03T15:28:21.240Z,29.61
2018-07-03T15:29:20.215Z,29.71
2018-07-03T15:30:20.343Z,29.61
2018-07-03T15:31:20.926Z,29.22
2018-07-03T15:32:21.025Z,29.61
2018-07-03T15:33:22.039Z,29.32
2018-07-03T15:34:20.237Z,29.61
2018-07-03T15:35:19.969Z,29.69
2018-07-03T15:36:19.950Z,30.92
2018-07-03T15:37:19.949Z,31.31
2018-07-03T15:38:19.930Z,31.02
2018-07-03T15:39:19.905Z,30.84
2018-07-03T15:40:21.835Z,30.94
2018-07-03T15:41:19.877Z,30.47
2018-07-03T15:42:19.864Z,30.76
2018-07-03T15:43:19.876Z,30.87
2018-07-03T15:44:19.834Z,30.97
2018-07-03T15:45:19.807Z,31.45
2018-07-03T15:46:19.786Z,31.16
2018-07-03T15:47:20.348Z,31.16
2018-07-03T15:48:19.748Z,30.97
2018-07-03T15:49:19.753Z,31.07
2018-07-03T15:50:19.714Z,31.35
2018-07-03T15:51:19.706Z,31.26
2018-07-03T15:52:19.690Z,31.65
2018-07-03T15:53:19.673Z,32.12
2018-07-03T15:54:19.649Z,32.20
2018-07-03T15:55:19.648Z,32.57
2018-07-03T15:56:19.680Z,33.64
2018-07-03T15:57:19.606Z,33.25
2018-07-03T15:58:19.588Z,33.06
2018-07-03T15:59:19.569Z,32.57
2018-07-03T16:00:19.551Z,32.67
2018-07-03T16:01:26.961Z,32.86
2018-07-03T16:03:13.197Z,33.14
2018-07-03T16:04:15.157Z,33.52
2018-07-03T16:05:13.001Z,33.34
2018-07-03T16:06:15.538Z,33.14
2018-07-03T16:07:13.003Z,33.14
2018-07-03T16:08:12.983Z,33.23
2018-07-03T16:09:12.973Z,33.33
2018-07-03T16:10:13.008Z,32.75
2018-07-03T16:11:12.922Z,33.23
2018-07-03T16:12:12.919Z,33.52
2018-07-03T16:13:12.836Z,33.72
2018-07-03T16:14:12.871Z,33.14
2018-07-03T16:15:13.596Z,33.23
2018-07-03T16:16:12.896Z,33.23
2018-07-03T16:17:12.795Z,33.42
2018-07-03T16:18:12.717Z,33.44
2018-07-03T16:19:12.865Z,33.54
2018-07-03T16:20:14.627Z,33.25
2018-07-03T16:21:12.814Z,32.47
2018-07-03T16:22:12.861Z,33.04
2018-07-03T16:23:12.728Z,32.46
2018-07-03T16:24:14.498Z,32.07
2018-07-03T16:25:12.768Z,32.94
2018-07-03T16:26:14.655Z,32.07
2018-07-03T16:27:12.658Z,32.46
2018-07-03T16:28:13.594Z,32.18
2018-07-03T16:29:12.682Z,31.15
2018-07-03T16:30:13.601Z,29.24
2018-07-03T16:31:12.669Z,28.66
2018-07-03T16:32:13.194Z,28.66
2018-07-03T16:33:12.626Z,27.98
2018-07-03T16:34:12.640Z,28.09
2018-07-03T16:35:12.567Z,27.51
2018-07-03T16:36:12.479Z,26.86
2018-07-03T16:37:12.471Z,26.86
2018-07-03T16:38:12.407Z,26.67
2018-07-03T16:39:12.410Z,27.03
2018-07-03T16:40:12.410Z,26.84
2018-07-03T16:41:12.438Z,26.84
2018-07-03T16:42:12.608Z,27.32
2018-07-03T16:43:14.314Z,26.86
2018-07-03T16:44:12.307Z,26.75
2018-07-03T16:45:12.357Z,26.94
2018-07-03T16:46:12.547Z,27.23
2018-07-03T16:47:12.331Z,27.51
2018-07-03T16:48:12.483Z,27.62
2018-07-03T16:49:12.236Z,27.34
2018-07-03T16:50:12.313Z,26.67
2018-07-03T16:51:12.182Z,26.67
2018-07-03T16:52:12.292Z,25.80
2018-07-03T16:53:12.216Z,26.01
2018-07-03T16:54:12.200Z,25.82
2018-07-03T16:55:12.108Z,25.34
2018-07-03T16:56:12.185Z,25.43
2018-07-03T16:57:12.093Z,26.76
2018-07-03T16:58:12.136Z,26.39
2018-07-03T16:59:12.061Z,25.80
2018-07-03T17:00:12.286Z,26.48
2018-07-03T17:01:12.085Z,26.67
2018-07-03T17:02:12.124Z,26.76
2018-07-03T17:03:13.055Z,26.76
2018-07-03T17:04:12.124Z,26.37
2018-07-03T17:05:12.604Z,26.86
2018-07-03T17:06:11.995Z,26.68
2018-07-03T17:07:12.003Z,25.32
2018-07-03T17:08:11.914Z,25.32
2018-07-03T17:09:11.978Z,26.01
2018-07-03T17:10:11.931Z,25.90
2018-07-03T17:11:11.916Z,25.81
2018-07-03T17:12:11.886Z,26.55
2018-07-03T17:13:11.856Z,28.28
2018-07-03T17:14:13.489Z,29.24
2018-07-03T17:15:11.842Z,28.96
2018-07-03T17:16:11.824Z,28.57
2018-07-03T17:17:11.817Z,28.47
2018-07-03T17:18:11.793Z,28.68
2018-07-03T17:19:12.495Z,28.00
2018-07-03T17:20:11.759Z,28.78
2018-07-03T17:21:11.784Z,28.96
2018-07-03T17:22:11.740Z,29.24
2018-07-03T17:23:11.789Z,29.25
2018-07-03T17:24:12.532Z,28.96
2018-07-03T17:25:13.521Z,28.88
2018-07-03T17:26:13.560Z,28.58
2018-07-03T17:27:13.541Z,29.44
2018-07-03T17:28:11.747Z,29.43
2018-07-03T17:29:11.620Z,29.62
2018-07-03T17:30:13.619Z,29.64
2018-07-03T17:31:12.876Z,29.44
2018-07-03T17:32:11.827Z,29.44
2018-07-03T17:33:11.726Z,29.25
2018-07-03T17:34:12.684Z,29.44
2018-07-03T17:35:13.741Z,29.64
2018-07-03T17:36:12.612Z,30.01
2018-07-03T17:37:13.607Z,30.68
2018-07-03T17:38:11.679Z,31.24
2018-07-03T17:39:18.648Z,31.92
2018-07-03T17:40:11.677Z,31.07
2018-07-03T17:41:13.255Z,32.12
2018-07-03T17:42:11.673Z,31.55
2018-07-03T17:43:11.497Z,32.12
2018-07-03T17:44:11.575Z,32.39
2018-07-03T17:45:11.409Z,32.23
2018-07-03T17:46:12.345Z,31.66
2018-07-03T17:47:11.580Z,30.90
2018-07-03T17:48:11.590Z,30.88
2018-07-03T17:49:12.264Z,31.16
2018-07-03T17:50:11.513Z,31.18
2018-07-03T17:51:11.532Z,31.18
2018-07-03T17:52:12.135Z,31.00
2018-07-03T17:53:11.515Z,30.61
2018-07-03T17:54:12.202Z,31.37
2018-07-03T17:55:11.417Z,32.52
2018-07-03T17:56:11.693Z,32.79
2018-07-03T17:57:11.362Z,32.60
2018-07-03T17:58:11.280Z,33.07
2018-07-03T17:59:11.543Z,33.76
2018-07-03T18:00:11.353Z,33.84
2018-07-03T18:01:13.313Z,33.67
2018-07-03T18:02:11.645Z,33.26
2018-07-03T18:03:11.259Z,33.65
2018-07-03T18:04:11.306Z,34.14
2018-07-03T18:05:11.317Z,34.43
2018-07-03T18:06:11.296Z,33.86
2018-07-03T18:07:11.236Z,33.86
2018-07-03T18:08:11.314Z,33.94
2018-07-03T18:09:12.170Z,34.25
2018-07-03T18:10:11.262Z,33.11
2018-07-03T18:11:11.250Z,32.52
2018-07-03T18:12:11.194Z,32.13
2018-07-03T18:13:11.151Z,32.34
2018-07-03T18:14:11.101Z,32.05
2018-07-03T18:15:11.161Z,32.64
2018-07-03T18:16:11.168Z,32.52
2018-07-03T18:17:12.592Z,33.86
2018-07-03T18:18:11.112Z,34.14
2018-07-03T18:19:11.612Z,34.06
2018-07-03T18:20:11.185Z,33.28
2018-07-03T18:21:11.004Z,33.28
2018-07-03T18:22:10.988Z,34.04
2018-07-03T18:23:11.146Z,34.33
2018-07-03T18:24:11.151Z,34.70
2018-07-03T18:25:13.797Z,34.81
2018-07-03T18:26:10.943Z,35.21
2018-07-03T18:27:11.025Z,34.33
2018-07-03T18:28:10.997Z,35.59
2018-07-03T18:29:11.034Z,34.72
2018-07-03T18:30:10.948Z,34.62
2018-07-03T18:31:10.976Z,34.81
2018-07-03T18:32:11.061Z,35.59
2018-07-03T18:33:11.731Z,34.64
2018-07-03T18:34:10.893Z,33.86
2018-07-03T18:35:11.919Z,34.14
2018-07-03T18:36:11.019Z,34.81
2018-07-03T18:37:11.047Z,34.25
2018-07-03T18:38:10.860Z,33.86
2018-07-03T18:39:10.847Z,34.43
2018-07-03T18:40:10.803Z,34.72
2018-07-03T18:41:10.835Z,34.53
2018-07-03T18:42:10.890Z,35.11
2018-07-03T18:43:11.760Z,35.38
2018-07-03T18:44:10.911Z,35.38
2018-07-03T18:45:12.978Z,35.30
2018-07-03T18:46:10.780Z,34.74
2018-07-03T18:47:11.657Z,34.62
2018-07-03T18:48:10.757Z,35.11
2018-07-03T18:49:11.697Z,35.96
2018-07-03T18:50:10.596Z,36.25
2018-07-03T18:51:10.692Z,36.35
2018-07-03T18:52:10.592Z,36.25
2018-07-03T18:53:10.787Z,36.25
2018-07-03T18:54:11.195Z,36.72
2018-07-03T18:55:10.658Z,36.14
2018-07-03T18:56:11.313Z,37.19
2018-07-03T18:57:10.652Z,37.85
2018-07-03T18:58:10.493Z,38.13
2018-07-03T18:59:10.607Z,38.31
2018-07-03T19:00:10.621Z,38.50
2018-07-03T19:01:10.760Z,38.79
2018-07-03T19:02:10.547Z,38.68
2018-07-03T19:03:11.154Z,39.55
2018-07-03T19:04:10.625Z,40.28
2018-07-03T19:05:10.424Z,40.77
2018-07-03T19:06:13.396Z,41.03
2018-07-03T19:07:10.534Z,41.23
2018-07-03T19:08:10.666Z,41.61
2018-07-03T19:09:10.552Z,42.29
2018-07-03T19:10:10.422Z,42.56
2018-07-03T19:11:10.462Z,42.85
2018-07-03T19:12:12.242Z,43.24
2018-07-03T19:13:10.337Z,43.72
2018-07-03T19:14:10.274Z,43.72
2018-07-03T19:15:10.383Z,44.37
2018-07-03T19:16:10.290Z,45.04
2018-07-03T19:17:10.244Z,44.85
2018-07-03T19:18:11.108Z,45.34
2018-07-03T19:19:10.243Z,45.53
2018-07-03T19:20:10.116Z,45.79
2018-07-03T19:21:10.254Z,46.37
2018-07-03T19:22:10.108Z,47.24
2018-07-03T19:23:11.768Z,47.14
2018-07-03T19:24:10.198Z,47.92
2018-07-03T19:25:10.249Z,47.82
2018-07-03T19:26:10.101Z,47.92
2018-07-03T19:27:10.071Z,48.49
2018-07-03T19:28:10.049Z,48.69
2018-07-03T19:29:10.072Z,49.15
2018-07-03T19:30:10.087Z,48.76
2018-07-03T19:31:10.091Z,49.43
2018-07-03T19:32:10.138Z,49.43
2018-07-03T19:33:11.771Z,50.21
2018-07-03T19:34:09.936Z,50.27
2018-07-03T19:35:09.981Z,50.95
2018-07-03T19:36:11.715Z,51.62
2018-07-03T19:37:09.991Z,51.82
2018-07-03T19:38:10.799Z,50.27
2018-07-03T19:39:11.705Z,50.47
2018-07-03T19:40:09.852Z,51.24
2018-07-03T19:41:09.865Z,51.82
2018-07-03T19:42:09.798Z,51.31
2018-07-03T19:43:09.743Z,51.89
2018-07-03T19:44:09.728Z,51.31
2018-07-03T19:45:09.818Z,51.50
2018-07-03T19:46:11.722Z,52.37
2018-07-03T19:47:09.739Z,52.18
2018-07-03T19:48:09.727Z,52.75
2018-07-03T19:49:09.651Z,52.73
2018-07-03T19:50:09.892Z,52.73
2018-07-03T19:51:09.974Z,52.92
2018-07-03T19:52:10.328Z,53.98
2018-07-03T19:53:10.085Z,54.65
2018-07-03T19:54:11.232Z,54.85
2018-07-03T19:55:09.554Z,54.27
2018-07-03T19:56:09.707Z,54.75
2018-07-03T19:57:09.493Z,54.56
2018-07-03T19:58:09.644Z,55.04
2018-07-03T19:59:11.293Z,54.56
2018-07-03T20:00:09.482Z,53.88
2018-07-03T20:01:09.375Z,54.17
2018-07-03T20:02:11.395Z,54.75
2018-07-03T20:03:11.214Z,54.53
2018-07-03T20:04:09.462Z,54.53
2018-07-03T20:05:11.330Z,54.63
2018-07-03T20:06:09.417Z,55.49
2018-07-03T20:07:09.416Z,54.53
2018-07-03T20:08:10.374Z,55.40
2018-07-03T20:09:10.288Z,55.20
2018-07-03T20:10:09.215Z,55.30
2018-07-03T20:11:10.974Z,55.40
2018-07-03T20:12:10.071Z,55.40
2018-07-03T20:13:09.114Z,55.40
2018-07-03T20:14:09.252Z,54.60
2018-07-03T20:15:09.183Z,54.69
2018-07-03T20:16:09.136Z,54.79
2018-07-03T20:17:09.939Z,55.18
2018-07-03T20:18:11.048Z,55.46
2018-07-03T20:19:09.351Z,54.69
2018-07-03T20:20:09.114Z,55.18
2018-07-03T20:21:08.983Z,54.89
2018-07-03T20:22:09.066Z,54.99
2018-07-03T20:23:09.071Z,55.08
2018-07-03T20:24:09.165Z,54.99
2018-07-03T20:25:08.998Z,55.53
2018-07-03T20:26:08.959Z,55.34
2018-07-03T20:27:08.939Z,55.53
2018-07-03T20:28:09.154Z,55.73
2018-07-03T20:29:10.324Z,55.91
2018-07-03T20:30:08.955Z,56.11
2018-07-03T20:31:08.971Z,55.91
2018-07-03T20:32:08.885Z,55.91
2018-07-03T20:33:08.852Z,56.01
2018-07-03T20:34:08.767Z,56.11
2018-07-03T20:35:08.713Z,55.82
2018-07-03T20:36:08.796Z,56.37
2018-07-03T20:37:08.724Z,56.85
2018-07-03T20:38:11.374Z,56.98
2018-07-03T20:39:08.982Z,57.23
2018-07-03T20:40:08.716Z,57.33
2018-07-03T20:41:08.628Z,57.71
2018-07-03T20:42:09.527Z,58.10
2018-07-03T20:43:08.744Z,58.96
2018-07-03T20:44:09.313Z,58.29
2018-07-03T20:45:08.623Z,58.67
2018-07-03T20:46:08.614Z,58.67
2018-07-03T20:47:08.475Z,58.58
2018-07-03T20:48:08.521Z,58.77
2018-07-03T20:49:08.361Z,59.16
2018-07-03T20:50:08.428Z,59.03
2018-07-03T20:51:08.280Z,59.51
2018-07-03T20:52:08.465Z,59.51
2018-07-03T20:53:12.832Z,59.06
2018-07-03T20:54:08.309Z,58.84
2018-07-03T20:55:08.377Z,58.87
2018-07-03T20:56:08.183Z,58.55
2018-07-03T20:57:08.340Z,58.45
2018-07-03T20:58:08.334Z,57.97
2018-07-03T20:59:08.205Z,58.55
2018-07-03T21:00:08.189Z,59.03
2018-07-03T21:01:13.059Z,59.03
2018-07-03T21:02:08.143Z,59.22
2018-07-03T21:03:08.870Z,59.12
2018-07-03T21:04:09.929Z,60.08
2018-07-03T21:05:07.906Z,59.12
2018-07-03T21:06:08.043Z,59.80
2018-07-03T21:07:09.819Z,59.58
2018-07-03T21:08:08.858Z,59.96
2018-07-03T21:09:08.046Z,60.05
2018-07-03T21:10:07.933Z,60.44
2018-07-03T21:11:07.844Z,60.44
2018-07-03T21:12:10.608Z,60.44
2018-07-03T21:13:07.752Z,60.15
2018-07-03T21:14:12.412Z,59.58
2018-07-03T21:15:09.504Z,60.35
2018-07-03T21:16:07.876Z,60.25
2018-07-03T21:17:07.758Z,60.72
2018-07-03T21:18:07.685Z,60.72
2018-07-03T21:19:08.367Z,60.82
2018-07-03T21:20:08.491Z,61.11
2018-07-03T21:21:07.883Z,61.49
2018-07-03T21:22:07.632Z,61.30
2018-07-03T21:23:07.576Z,61.88
2018-07-03T21:24:09.547Z,61.98
2018-07-03T21:25:08.953Z,62.45
2018-07-03T21:26:07.628Z,61.85
2018-07-03T21:27:07.571Z,62.71
2018-07-03T21:28:07.451Z,62.42
2018-07-03T21:29:07.480Z,62.90
2018-07-03T21:30:07.430Z,63.00
2018-07-03T21:31:07.391Z,63.19
2018-07-03T21:32:07.535Z,63.09
2018-07-03T21:33:07.415Z,64.15
2018-07-03T21:34:07.324Z,64.34
2018-07-03T21:35:08.955Z,64.53
2018-07-03T21:36:08.990Z,64.53
2018-07-03T21:37:07.957Z,64.82
2018-07-03T21:38:07.338Z,65.59
2018-07-03T21:39:07.372Z,66.06
2018-07-03T21:40:07.396Z,65.68
2018-07-03T21:41:07.292Z,65.49
2018-07-03T21:42:08.918Z,65.88
2018-07-03T21:43:10.276Z,66.55
2018-07-03T21:44:07.214Z,66.83
2018-07-03T21:45:09.001Z,67.60
2018-07-03T21:46:07.136Z,67.12
2018-07-03T21:47:07.480Z,67.89
2018-07-03T21:48:06.855Z,67.50
2018-07-03T21:49:07.011Z,67.89
2018-07-03T21:50:11.973Z,67.60
2018-07-03T21:51:07.542Z,67.69
2018-07-03T21:52:06.924Z,67.79
2018-07-03T21:53:07.040Z,67.79
2018-07-03T21:54:06.756Z,67.66
2018-07-03T21:55:10.509Z,68.81
2018-07-03T21:56:06.906Z,68.33
2018-07-03T21:57:06.796Z,68.72
2018-07-03T21:58:06.719Z,69.58
2018-07-03T21:59:07.537Z,71.11
2018-07-03T22:00:06.777Z,71.02
2018-07-03T22:01:07.990Z,70.92
2018-07-03T22:02:07.519Z,71.11
2018-07-03T22:03:06.717Z,71.21
2018-07-03T22:04:06.712Z,71.69
2018-07-03T22:05:08.917Z,71.78
2018-07-03T22:06:06.942Z,71.69
2018-07-03T22:07:06.497Z,72.84
2018-07-03T22:08:06.565Z,72.36
2018-07-03T22:09:06.546Z,72.45
2018-07-03T22:10:09.542Z,72.07
2018-07-03T22:11:06.490Z,72.27
2018-07-03T22:12:06.463Z,72.74
2018-07-03T22:13:08.511Z,72.55
2018-07-03T22:14:06.481Z,72.94
2018-07-03T22:15:06.417Z,72.94
2018-07-03T22:16:06.406Z,73.13
2018-07-03T22:17:07.969Z,73.13
2018-07-03T22:18:06.813Z,73.32
2018-07-03T22:19:06.302Z,73.80
2018-07-03T22:20:08.985Z,74.18
2018-07-03T22:21:06.254Z,74.85
2018-07-03T22:22:06.246Z,74.95
2018-07-03T22:23:07.874Z,74.76
2018-07-03T22:24:06.010Z,74.95
2018-07-03T22:25:08.942Z,74.66
2018-07-03T22:26:06.107Z,74.37
2018-07-03T22:27:06.058Z,74.66
2018-07-03T22:28:06.026Z,74.66
2018-07-03T22:29:06.002Z,74.66
2018-07-03T22:30:05.941Z,74.95
2018-07-03T22:31:07.513Z,74.82
2018-07-03T22:32:06.467Z,74.62
2018-07-03T22:33:05.893Z,74.91
2018-07-03T22:34:05.852Z,75.87
2018-07-03T22:35:05.882Z,75.58
2018-07-03T22:36:05.852Z,74.82
2018-07-03T22:37:05.792Z,74.66
2018-07-03T22:38:06.462Z,74.66
2018-07-03T22:39:06.399Z,74.72
2018-07-03T22:40:06.505Z,75.04
2018-07-03T22:41:05.737Z,74.47
2018-07-03T22:42:17.371Z,74.76
2018-07-03T22:43:06.141Z,74.95
2018-07-03T22:44:08.982Z,73.80
2018-07-03T22:45:05.517Z,74.66
2018-07-03T22:46:05.572Z,75.01
2018-07-03T22:47:28.527Z,74.91
2018-07-03T22:48:05.539Z,75.77
2018-07-03T22:49:05.572Z,75.29
2018-07-03T22:50:05.485Z,75.20
2018-07-03T22:51:06.051Z,75.77
2018-07-03T22:52:06.955Z,75.29
2018-07-03T22:53:09.968Z,75.58
2018-07-03T22:54:06.014Z,75.96
2018-07-03T22:55:07.961Z,75.48
2018-07-03T22:56:05.342Z,75.77
2018-07-03T22:57:05.432Z,76.06
2018-07-03T22:58:06.988Z,76.21
2018-07-03T22:59:08.018Z,76.12
2018-07-03T23:00:05.188Z,76.64
2018-07-03T23:01:06.058Z,76.31
2018-07-03T23:02:05.174Z,76.98
2018-07-03T23:03:06.028Z,76.60
2018-07-03T23:04:05.086Z,76.60
2018-07-03T23:05:05.100Z,76.89
2018-07-03T23:06:09.954Z,76.02
2018-07-03T23:07:05.966Z,76.50
2018-07-03T23:08:08.051Z,76.44
2018-07-03T23:09:05.488Z,76.15
2018-07-03T23:10:04.995Z,76.54
2018-07-03T23:11:05.940Z,76.50
2018-07-03T23:12:04.901Z,76.02
2018-07-03T23:13:04.956Z,76.40
2018-07-03T23:14:06.454Z,76.60
2018-07-03T23:15:04.819Z,76.69
2018-07-03T23:16:05.458Z,76.69
2018-07-03T23:17:04.797Z,76.60
2018-07-03T23:18:06.970Z,76.89
2018-07-03T23:19:05.789Z,76.89
2018-07-03T23:20:04.703Z,76.40
2018-07-03T23:21:04.644Z,76.98
2018-07-03T23:22:04.553Z,76.98
2018-07-03T23:23:05.534Z,76.79
2018-07-03T23:24:04.595Z,76.79
2018-07-03T23:25:04.643Z,76.89
2018-07-03T23:26:04.577Z,77.36
2018-07-03T23:27:04.534Z,77.75
2018-07-03T23:28:04.461Z,77.84
2018-07-03T23:29:05.040Z,77.36
2018-07-03T23:30:04.329Z,77.17
2018-07-03T23:31:04.427Z,77.80
2018-07-03T23:32:05.999Z,77.70
2018-07-03T23:33:05.969Z,77.80
2018-07-03T23:34:04.285Z,77.80
2018-07-03T23:35:05.205Z,78.28
2018-07-03T23:36:04.641Z,78.38
2018-07-03T23:37:04.236Z,78.28
2018-07-03T23:38:07.006Z,78.95
2018-07-03T23:39:04.231Z,79.14
2018-07-03T23:40:04.225Z,79.62
2018-07-03T23:41:04.438Z,79.72
2018-07-03T23:42:04.139Z,79.43
2018-07-03T23:43:04.186Z,80.67
2018-07-03T23:44:08.945Z,80.73
2018-07-03T23:45:04.032Z,80.67
2018-07-03T23:46:04.080Z,81.34
2018-07-03T23:47:05.581Z,81.59
2018-07-03T23:48:04.466Z,82.26
2018-07-03T23:49:03.956Z,81.49
2018-07-03T23:50:08.497Z,81.68
2018-07-03T23:51:03.916Z,81.68
2018-07-03T23:52:25.546Z,81.30
2018-07-03T23:53:04.362Z,81.59
2018-07-03T23:54:04.203Z,81.40
2018-07-03T23:55:06.453Z,81.68
2018-07-03T23:56:03.783Z,81.97
2018-07-03T23:57:06.504Z,81.78
2018-07-03T23:58:05.472Z,82.17
2018-07-03T23:59:03.693Z,81.78
